createdAt,value
2023-02-14T00:02:19.409Z,91.05
2023-02-14T00:04:45.937Z,88.55
2023-02-14T00:07:12.754Z,82.68
2023-02-14T00:09:39.232Z,81.63
2023-02-14T00:12:06.236Z,80.68
2023-02-14T00:14:32.958Z,83.72
2023-02-14T00:16:59.898Z,81.32
2023-02-14T00:19:26.587Z,74.25
2023-02-14T00:21:53.142Z,77.22
2023-02-14T00:24:25.225Z,76.72
2023-02-14T00:26:52.736Z,75.97
2023-02-14T00:29:31.047Z,71.57
2023-02-14T00:31:58.120Z,66.47
2023-02-14T00:34:24.929Z,66.93
2023-02-14T00:36:51.628Z,70.63
2023-02-14T00:39:19.584Z,67.93
2023-02-14T00:41:46.137Z,67.32
2023-02-14T00:44:13.655Z,67.43
2023-02-14T00:46:40.687Z,65.20
2023-02-14T00:49:07.241Z,68.85
2023-02-14T00:51:33.760Z,73.07
2023-02-14T00:54:01.947Z,69.20
2023-02-14T00:56:31.021Z,69.53
2023-02-14T00:58:57.499Z,66.80
2023-02-14T01:01:24.213Z,72.43
2023-02-14T01:03:50.861Z,69.57
2023-02-14T01:06:18.740Z,67.22
2023-02-14T01:08:45.343Z,67.25
2023-02-14T01:11:23.038Z,70.13
2023-02-14T01:13:51.342Z,72.65
2023-02-14T01:16:21.565Z,63.15
2023-02-14T01:18:49.059Z,74.38
2023-02-14T01:21:45.364Z,62.45
2023-02-14T01:24:12.410Z,73.25
2023-02-14T01:26:41.460Z,70.78
2023-02-14T01:29:09.128Z,69.30
2023-02-14T01:31:36.132Z,65.88
2023-02-14T01:34:03.057Z,62.70
2023-02-14T01:36:38.436Z,66.05
2023-02-14T01:39:07.833Z,69.25
2023-02-14T01:41:37.510Z,69.95
2023-02-14T01:44:07.387Z,64.10
2023-02-14T01:46:36.112Z,67.78
2023-02-14T01:49:25.782Z,65.18
2023-02-14T01:52:14.226Z,65.32
2023-02-14T01:54:49.738Z,56.85
2023-02-14T01:57:20.301Z,62.70
2023-02-14T01:59:52.716Z,60.03
2023-02-14T02:02:19.642Z,63.85
2023-02-14T02:04:46.648Z,62.65
2023-02-14T02:07:19.383Z,61.92
2023-02-14T02:10:00.194Z,60.90
2023-02-14T02:12:29.248Z,58.42
2023-02-14T02:14:58.852Z,63.38
2023-02-14T02:17:38.200Z,59.45
2023-02-14T02:20:48.126Z,65.43
2023-02-14T02:23:23.440Z,62.47
2023-02-14T02:26:23.735Z,64.95
2023-02-14T02:28:59.406Z,60.42
2023-02-14T02:31:45.982Z,57.72
2023-02-14T02:34:18.516Z,54.47
2023-02-14T02:36:56.878Z,59.22
2023-02-14T02:39:41.459Z,61.20
2023-02-14T02:42:33.238Z,59.67
2023-02-14T02:45:33.698Z,61.80
2023-02-14T02:48:17.722Z,60.05
2023-02-14T02:50:49.332Z,60.50
2023-02-14T02:56:04.666Z,56.28
2023-02-14T02:58:36.837Z,61.88
2023-02-14T03:01:10.211Z,57.95
2023-02-14T03:03:39.453Z,54.92
2023-02-14T03:06:06.287Z,56.40
2023-02-14T03:08:33.052Z,60.38
2023-02-14T03:11:01.979Z,65.70
2023-02-14T03:13:41.920Z,60.80
2023-02-14T03:16:33.167Z,58.90
2023-02-14T03:19:21.695Z,59.25
2023-02-14T03:21:56.478Z,62.58
2023-02-14T03:24:50.880Z,61.55
2023-02-14T03:27:26.997Z,63.17
2023-02-14T03:30:02.652Z,60.40
2023-02-14T03:32:38.225Z,54.38
2023-02-14T03:35:23.642Z,55.78
2023-02-14T03:38:09.024Z,52.78
2023-02-14T03:40:43.000Z,54.22
2023-02-14T03:43:18.752Z,55.95
2023-02-14T03:46:04.238Z,61.40
2023-02-14T03:48:33.378Z,59.65
2023-02-14T03:51:01.403Z,64.82
2023-02-14T03:53:32.742Z,67.53
2023-02-14T03:56:12.720Z,69.00
2023-02-14T03:58:47.256Z,65.40
2023-02-14T04:01:21.283Z,68.70
2023-02-14T04:03:48.948Z,64.43
2023-02-14T04:06:18.284Z,69.60
2023-02-14T04:08:45.126Z,90.75
2023-02-14T04:11:11.756Z,97.38
2023-02-14T04:13:38.677Z,89.32
2023-02-14T04:16:05.809Z,91.78
2023-02-14T04:18:32.885Z,93.85
2023-02-14T04:21:00.245Z,94.10
2023-02-14T04:23:26.965Z,89.25
2023-02-14T04:25:53.499Z,86.63
2023-02-14T04:28:20.033Z,86.40
2023-02-14T04:30:46.675Z,103.80
2023-02-14T04:33:13.417Z,90.47
2023-02-14T04:35:39.913Z,88.65
2023-02-14T04:38:06.467Z,93.38
2023-02-14T04:40:33.007Z,89.68
2023-02-14T04:42:59.551Z,91.93
2023-02-14T04:45:26.012Z,93.50
2023-02-14T04:47:52.557Z,105.03
2023-02-14T04:50:19.076Z,104.35
2023-02-14T04:52:45.560Z,109.13
2023-02-14T04:55:12.024Z,100.45
2023-02-14T04:57:38.586Z,90.53
2023-02-14T05:00:05.916Z,100.20
2023-02-14T05:02:32.426Z,110.45
2023-02-14T05:04:58.910Z,91.80
2023-02-14T05:07:25.453Z,115.53
2023-02-14T05:09:51.986Z,117.82
2023-02-14T05:12:18.447Z,93.95
2023-02-14T05:14:45.029Z,99.65
2023-02-14T05:17:11.602Z,97.30
2023-02-14T05:19:38.065Z,85.85
2023-02-14T05:22:04.661Z,73.40
2023-02-14T05:24:31.221Z,84.90
2023-02-14T05:26:57.733Z,83.20
2023-02-14T05:29:24.219Z,86.15
2023-02-14T05:31:50.841Z,68.25
2023-02-14T05:34:17.301Z,74.10
2023-02-14T05:36:43.886Z,76.35
2023-02-14T05:39:10.331Z,69.50
2023-02-14T05:44:03.233Z,76.55
2023-02-14T05:46:29.716Z,65.70
2023-02-14T05:48:56.329Z,61.15
2023-02-14T05:51:22.853Z,62.60
2023-02-14T05:53:49.332Z,65.35
2023-02-14T05:56:15.832Z,72.38
2023-02-14T05:58:42.332Z,68.55
2023-02-14T06:01:08.833Z,67.10
2023-02-14T06:03:35.347Z,72.13
2023-02-14T06:06:01.849Z,59.22
2023-02-14T06:08:28.365Z,68.22
2023-02-14T06:10:54.874Z,66.25
2023-02-14T06:13:21.344Z,66.47
2023-02-14T06:15:47.793Z,66.80
2023-02-14T06:18:14.266Z,62.97
2023-02-14T06:20:40.737Z,67.93
2023-02-14T06:23:07.270Z,66.55
2023-02-14T06:25:33.761Z,66.35
2023-02-14T06:28:00.390Z,71.13
2023-02-14T06:30:27.715Z,74.50
2023-02-14T06:32:54.385Z,76.32
2023-02-14T06:35:20.904Z,74.70
2023-02-14T06:37:47.401Z,74.38
2023-02-14T06:40:14.334Z,98.25
2023-02-14T06:42:41.069Z,123.65
2023-02-14T06:45:08.106Z,114.18
2023-02-14T06:47:35.220Z,123.82
2023-02-14T06:50:02.673Z,100.63
2023-02-14T06:52:29.144Z,115.80
2023-02-14T06:54:55.681Z,111.07
2023-02-14T06:57:22.139Z,101.90
2023-02-14T06:59:48.612Z,88.75
2023-02-14T07:02:15.161Z,103.47
2023-02-14T07:04:41.674Z,100.82
2023-02-14T07:07:08.149Z,95.88
2023-02-14T07:09:34.713Z,94.30
2023-02-14T07:12:01.171Z,101.47
2023-02-14T07:14:27.690Z,85.30
2023-02-14T07:16:54.177Z,92.30
2023-02-14T07:19:20.653Z,92.47
2023-02-14T07:21:47.075Z,89.97
2023-02-14T07:24:13.571Z,97.45
2023-02-14T07:26:40.076Z,102.90
2023-02-14T07:29:06.553Z,110.05
2023-02-14T07:31:33.102Z,110.40
2023-02-14T07:33:59.708Z,124.43
2023-02-14T07:36:26.287Z,107.45
2023-02-14T07:38:52.799Z,101.97
2023-02-14T07:41:19.383Z,97.18
2023-02-14T07:43:45.853Z,100.57
2023-02-14T07:46:12.336Z,103.35
2023-02-14T07:48:38.840Z,94.07
2023-02-14T07:51:05.368Z,89.32
2023-02-14T07:53:31.933Z,76.80
2023-02-14T07:55:58.537Z,85.82
2023-02-14T07:58:25.011Z,82.85
2023-02-14T08:00:51.486Z,86.63
2023-02-14T08:03:18.282Z,90.28
2023-02-14T08:05:45.176Z,85.78
2023-02-14T08:08:11.630Z,82.88
2023-02-14T08:10:38.140Z,88.40
2023-02-14T08:13:04.643Z,86.68
2023-02-14T08:15:35.535Z,82.88
2023-02-14T08:18:02.035Z,99.20
2023-02-14T08:20:28.544Z,83.10
2023-02-14T08:22:55.087Z,79.70
2023-02-14T08:25:21.522Z,82.72
2023-02-14T08:27:48.009Z,75.88
2023-02-14T08:30:15.207Z,75.00
2023-02-14T08:32:41.889Z,78.78
2023-02-14T08:35:09.709Z,85.63
2023-02-14T08:37:36.232Z,79.00
2023-02-14T08:40:03.040Z,82.68
2023-02-14T08:42:29.557Z,81.85
2023-02-14T08:44:56.057Z,82.38
2023-02-14T08:47:22.534Z,85.90
2023-02-14T08:49:49.023Z,78.97
2023-02-14T08:52:16.030Z,80.50
2023-02-14T08:54:42.746Z,80.60
2023-02-14T08:57:09.288Z,81.28
2023-02-14T08:59:35.810Z,87.55
2023-02-14T09:02:02.303Z,80.20
2023-02-14T09:04:28.876Z,70.70
2023-02-14T09:06:55.417Z,74.47
2023-02-14T09:09:21.895Z,65.30
2023-02-14T09:11:48.393Z,70.35
2023-02-14T09:14:14.920Z,60.85
2023-02-14T09:16:41.487Z,60.20
2023-02-14T09:19:07.976Z,53.00
2023-02-14T09:21:34.490Z,53.78
2023-02-14T09:24:00.965Z,57.58
2023-02-14T09:26:27.440Z,50.33
2023-02-14T09:28:53.958Z,51.10
2023-02-14T09:31:22.952Z,51.10
2023-02-14T09:33:50.944Z,50.72
2023-02-14T09:36:17.620Z,47.33
2023-02-14T09:38:44.116Z,46.65
2023-02-14T09:41:36.174Z,48.58
2023-02-14T09:44:07.858Z,45.55
2023-02-14T09:46:42.824Z,47.58
2023-02-14T09:49:15.508Z,42.13
2023-02-14T09:51:49.105Z,41.83
2023-02-14T09:54:26.912Z,42.42
2023-02-14T09:57:02.484Z,40.70
2023-02-14T09:59:52.747Z,41.10
2023-02-14T10:02:19.435Z,41.10
2023-02-14T10:05:07.338Z,38.92
2023-02-14T10:07:48.222Z,40.80
2023-02-14T10:11:02.541Z,38.75
2023-02-14T10:13:44.416Z,38.58
2023-02-14T10:16:28.164Z,37.10
2023-02-14T10:19:02.532Z,37.72
2023-02-14T10:21:36.204Z,42.30
2023-02-14T10:24:16.370Z,35.97
2023-02-14T10:26:42.898Z,36.58
2023-02-14T10:29:14.522Z,37.75
2023-02-14T10:31:56.805Z,37.20
2023-02-14T10:34:47.161Z,38.15
2023-02-14T10:37:13.617Z,36.70
2023-02-14T10:39:58.413Z,42.35
2023-02-14T10:42:43.383Z,36.20
2023-02-14T10:45:34.363Z,35.55
2023-02-14T10:48:12.841Z,36.10
2023-02-14T10:50:44.810Z,37.22
2023-02-14T10:53:11.235Z,37.90
2023-02-14T10:55:45.334Z,34.20
2023-02-14T10:58:16.065Z,40.38
2023-02-14T11:01:04.064Z,35.20
2023-02-14T11:03:33.416Z,37.38
2023-02-14T11:06:00.047Z,35.53
2023-02-14T11:08:52.847Z,38.20
2023-02-14T11:11:27.377Z,36.25
2023-02-14T11:13:54.046Z,35.50
2023-02-14T11:16:32.805Z,36.60
2023-02-14T11:19:14.554Z,37.92
2023-02-14T11:21:45.997Z,37.67
2023-02-14T11:27:02.217Z,34.25
2023-02-14T11:32:14.250Z,39.17
2023-02-14T11:34:45.344Z,37.03
2023-02-14T11:37:28.843Z,37.20
2023-02-14T11:39:59.479Z,38.47
2023-02-14T11:42:46.543Z,40.07
2023-02-14T11:45:26.300Z,39.05
2023-02-14T11:48:22.030Z,37.63
2023-02-14T11:51:00.783Z,39.92
2023-02-14T11:53:29.803Z,37.92
2023-02-14T11:55:58.656Z,38.83
2023-02-14T11:58:36.260Z,35.30
2023-02-14T12:01:03.559Z,36.70
2023-02-14T12:03:39.343Z,36.22
2023-02-14T12:06:06.463Z,35.88
2023-02-14T12:08:33.006Z,41.08
2023-02-14T12:11:04.346Z,37.95
2023-02-14T12:13:32.502Z,34.80
2023-02-14T12:15:59.354Z,34.95
2023-02-14T12:18:31.646Z,33.05
2023-02-14T12:21:22.210Z,34.50
2023-02-14T12:23:48.621Z,34.88
2023-02-14T12:26:28.481Z,30.60
2023-02-14T12:29:19.709Z,36.92
2023-02-14T12:31:47.520Z,38.95
2023-02-14T12:34:16.637Z,33.40
2023-02-14T12:37:05.849Z,35.15
2023-02-14T12:39:37.474Z,37.10
2023-02-14T12:42:51.274Z,38.60
2023-02-14T12:45:30.354Z,36.83
2023-02-14T12:48:16.171Z,36.47
2023-02-14T12:51:07.625Z,35.33
2023-02-14T12:53:42.338Z,35.20
2023-02-14T12:56:31.900Z,35.15
2023-02-14T12:59:04.541Z,34.45
2023-02-14T13:01:58.932Z,34.50
2023-02-14T13:04:58.617Z,37.80
2023-02-14T13:07:29.131Z,37.42
2023-02-14T13:10:23.215Z,40.08
2023-02-14T13:13:15.307Z,39.35
2023-02-14T13:15:53.152Z,35.22
2023-02-14T13:18:54.450Z,37.05
2023-02-14T13:21:26.250Z,31.33
2023-02-14T13:23:56.930Z,32.17
2023-02-14T13:26:35.353Z,32.38
2023-02-14T13:29:10.209Z,28.67
2023-02-14T13:31:38.388Z,27.38
2023-02-14T13:34:28.232Z,24.67
2023-02-14T13:36:58.005Z,27.42
2023-02-14T13:39:37.913Z,25.60
2023-02-14T13:42:06.312Z,25.92
2023-02-14T13:44:38.750Z,29.50
2023-02-14T13:47:07.666Z,29.13
2023-02-14T13:49:39.453Z,29.50
2023-02-14T13:52:06.516Z,31.73
2023-02-14T13:54:48.660Z,25.77
2023-02-14T13:57:32.279Z,31.45
2023-02-14T14:00:22.619Z,32.05
2023-02-14T14:02:54.045Z,30.00
2023-02-14T14:08:22.002Z,33.55
2023-02-14T14:10:52.516Z,29.25
2023-02-14T14:13:40.660Z,32.55
2023-02-14T14:16:25.118Z,31.38
2023-02-14T14:18:53.959Z,30.05
2023-02-14T14:21:35.099Z,28.13
2023-02-14T14:24:30.483Z,30.55
2023-02-14T14:27:03.501Z,31.42
2023-02-14T14:29:44.996Z,31.75
2023-02-14T14:34:49.281Z,28.05
2023-02-14T14:37:18.962Z,26.02
2023-02-14T14:40:08.421Z,28.08
2023-02-14T14:42:40.177Z,28.90
2023-02-14T14:45:19.053Z,27.67
2023-02-14T14:47:46.530Z,25.40
2023-02-14T14:50:21.783Z,22.85
2023-02-14T14:52:51.173Z,26.25
2023-02-14T14:55:24.689Z,27.05
2023-02-14T14:57:56.509Z,23.25
2023-02-14T15:00:33.982Z,28.15
2023-02-14T15:03:06.028Z,25.80
2023-02-14T15:05:36.478Z,27.67
2023-02-14T15:08:27.760Z,26.57
2023-02-14T15:10:58.716Z,24.60
2023-02-14T15:13:37.057Z,27.15
2023-02-14T15:16:04.027Z,27.70
2023-02-14T15:18:30.682Z,26.15
2023-02-14T15:20:57.467Z,24.80
2023-02-14T15:23:24.901Z,26.08
2023-02-14T15:25:52.185Z,28.38
2023-02-14T15:28:33.503Z,24.85
2023-02-14T15:31:03.713Z,28.52
2023-02-14T15:33:32.181Z,22.43
2023-02-14T15:36:04.132Z,27.40
2023-02-14T15:38:31.809Z,29.80
2023-02-14T15:41:00.112Z,26.85
2023-02-14T15:43:36.379Z,32.88
2023-02-14T15:46:19.852Z,30.67
2023-02-14T15:48:47.202Z,28.25
2023-02-14T15:51:21.528Z,29.88
2023-02-14T15:53:55.912Z,26.67
2023-02-14T15:56:26.202Z,32.08
2023-02-14T15:58:59.777Z,32.60
2023-02-14T16:01:26.297Z,29.83
2023-02-14T16:03:57.287Z,31.50
2023-02-14T16:06:32.920Z,33.92
2023-02-14T16:08:59.502Z,26.45
2023-02-14T16:11:37.363Z,30.45
2023-02-14T16:14:26.784Z,26.98
2023-02-14T16:17:03.763Z,30.15
2023-02-14T16:19:42.471Z,27.40
2023-02-14T16:22:23.956Z,32.05
2023-02-14T16:24:50.465Z,37.40
2023-02-14T16:27:16.994Z,32.28
2023-02-14T16:29:43.472Z,32.88
2023-02-14T16:32:28.021Z,29.98
2023-02-14T16:34:54.633Z,29.75
2023-02-14T16:37:30.086Z,40.30
2023-02-14T16:39:56.790Z,37.55
2023-02-14T16:42:24.003Z,29.88
2023-02-14T16:44:50.910Z,29.42
2023-02-14T16:47:19.741Z,31.67
2023-02-14T16:49:46.808Z,35.00
2023-02-14T16:52:16.728Z,31.30
2023-02-14T16:54:43.610Z,32.65
2023-02-14T16:57:28.972Z,31.20
2023-02-14T16:59:56.838Z,36.42
2023-02-14T17:02:23.976Z,37.28
2023-02-14T17:04:50.498Z,38.35
2023-02-14T17:07:17.101Z,40.67
2023-02-14T17:09:50.083Z,34.67
2023-02-14T17:12:20.732Z,41.63
2023-02-14T17:14:51.429Z,37.20
2023-02-14T17:17:18.094Z,39.67
2023-02-14T17:19:44.735Z,40.10
2023-02-14T17:22:14.091Z,43.90
2023-02-14T17:24:41.554Z,43.58
2023-02-14T17:27:08.087Z,40.78
2023-02-14T17:29:34.614Z,47.10
2023-02-14T17:32:01.250Z,45.60
2023-02-14T17:34:32.196Z,50.33
2023-02-14T17:36:58.832Z,42.53
2023-02-14T17:39:25.444Z,45.10
2023-02-14T17:41:51.943Z,40.03
2023-02-14T17:44:18.433Z,46.20
2023-02-14T17:46:44.921Z,43.45
2023-02-14T17:49:11.446Z,46.63
2023-02-14T17:51:37.953Z,41.63
2023-02-14T17:54:04.435Z,46.17
2023-02-14T17:56:30.922Z,45.05
2023-02-14T17:58:57.488Z,46.08
2023-02-14T18:01:27.084Z,43.95
2023-02-14T18:03:54.537Z,46.25
2023-02-14T18:06:21.608Z,41.85
2023-02-14T18:08:49.797Z,42.92
2023-02-14T18:11:18.316Z,42.35
2023-02-14T18:13:44.866Z,47.15
2023-02-14T18:16:15.497Z,40.10
2023-02-14T18:18:42.102Z,41.83
2023-02-14T18:21:11.887Z,46.95
2023-02-14T18:23:38.901Z,45.95
2023-02-14T18:26:09.681Z,44.90
2023-02-14T18:28:36.750Z,44.03
2023-02-14T18:31:15.465Z,97.45
2023-02-14T18:33:42.836Z,90.90
2023-02-14T18:36:12.149Z,90.68
2023-02-14T18:38:39.930Z,80.35
2023-02-14T18:41:08.338Z,77.32
2023-02-14T18:43:35.978Z,66.57
2023-02-14T18:46:07.690Z,62.78
2023-02-14T18:48:34.378Z,58.67
2023-02-14T18:51:15.869Z,53.97
2023-02-14T18:53:43.862Z,49.35
2023-02-14T18:56:16.316Z,51.65
2023-02-14T18:58:46.466Z,48.63
2023-02-14T19:01:19.936Z,45.97
2023-02-14T19:03:46.963Z,51.70
2023-02-14T19:06:13.436Z,47.65
2023-02-14T19:08:41.091Z,46.92
2023-02-14T19:11:13.172Z,41.63
2023-02-14T19:13:44.297Z,43.05
2023-02-14T19:16:12.890Z,39.40
2023-02-14T19:18:39.947Z,43.17
2023-02-14T19:21:11.331Z,39.35
2023-02-14T19:23:38.052Z,44.63
2023-02-14T19:26:19.580Z,36.03
2023-02-14T19:28:47.327Z,44.05
2023-02-14T19:31:14.357Z,40.00
2023-02-14T19:33:43.754Z,43.92
2023-02-14T19:36:16.164Z,40.33
2023-02-14T19:38:45.057Z,39.90
2023-02-14T19:41:21.474Z,45.15
2023-02-14T19:43:48.880Z,42.65
2023-02-14T19:46:17.647Z,43.47
2023-02-14T19:48:45.062Z,44.90
2023-02-14T19:51:16.801Z,44.22
2023-02-14T19:53:43.353Z,38.70
2023-02-14T19:56:10.709Z,42.05
2023-02-14T19:58:37.213Z,40.80
2023-02-14T20:01:04.742Z,42.47
2023-02-14T20:03:32.127Z,42.20
2023-02-14T20:05:58.659Z,44.25
2023-02-14T20:08:25.125Z,39.88
2023-02-14T20:10:51.620Z,42.85
2023-02-14T20:13:18.103Z,41.75
2023-02-14T20:15:44.566Z,41.92
2023-02-14T20:18:11.046Z,44.13
2023-02-14T20:20:37.514Z,39.85
2023-02-14T20:23:03.985Z,44.20
2023-02-14T20:25:30.439Z,38.40
2023-02-14T20:27:56.952Z,46.22
2023-02-14T20:30:23.470Z,43.58
2023-02-14T20:32:50.843Z,42.05
2023-02-14T20:35:17.309Z,42.95
2023-02-14T20:37:43.766Z,38.53
2023-02-14T20:40:10.863Z,47.83
2023-02-14T20:42:37.337Z,41.92
2023-02-14T20:45:03.966Z,46.42
2023-02-14T20:47:30.447Z,49.50
2023-02-14T20:49:56.925Z,45.88
2023-02-14T20:52:23.415Z,45.03
2023-02-14T20:54:49.865Z,48.05
2023-02-14T20:57:16.329Z,41.17
2023-02-14T20:59:42.879Z,47.90
2023-02-14T21:02:09.798Z,46.53
2023-02-14T21:04:36.518Z,47.85
2023-02-14T21:07:03.325Z,51.70
2023-02-14T21:09:29.772Z,49.53
2023-02-14T21:11:56.253Z,47.67
2023-02-14T21:14:22.709Z,55.53
2023-02-14T21:16:49.184Z,48.40
2023-02-14T21:19:15.729Z,44.03
2023-02-14T21:21:42.256Z,49.78
2023-02-14T21:24:15.773Z,41.70
2023-02-14T21:26:43.332Z,51.53
2023-02-14T21:29:10.197Z,44.63
2023-02-14T21:31:38.400Z,47.95
2023-02-14T21:34:05.282Z,45.47
2023-02-14T21:36:33.597Z,47.65
2023-02-14T21:39:00.261Z,53.08
2023-02-14T21:41:31.084Z,50.17
2023-02-14T21:43:59.065Z,50.50
2023-02-14T21:46:28.128Z,49.47
2023-02-14T21:48:56.023Z,49.65
2023-02-14T21:51:22.983Z,46.97
2023-02-14T21:53:50.012Z,49.95
2023-02-14T21:56:20.228Z,49.67
2023-02-14T21:58:48.581Z,51.95
2023-02-14T22:01:23.215Z,54.63
2023-02-14T22:03:51.019Z,57.70
2023-02-14T22:06:17.576Z,48.17
2023-02-14T22:08:44.496Z,49.17
2023-02-14T22:11:13.542Z,51.65
2023-02-14T22:13:40.692Z,59.75
2023-02-14T22:16:13.375Z,66.00
2023-02-14T22:18:40.279Z,71.40
2023-02-14T22:21:13.129Z,65.10
2023-02-14T22:23:40.178Z,63.70
2023-02-14T22:26:14.482Z,59.42
2023-02-14T22:28:42.233Z,65.57
2023-02-14T22:31:09.419Z,65.30
2023-02-14T22:33:37.776Z,67.88
2023-02-14T22:36:05.348Z,63.42
2023-02-14T22:38:32.889Z,66.38
2023-02-14T22:41:15.437Z,67.28
2023-02-14T22:43:43.517Z,67.43
2023-02-14T22:46:18.848Z,63.60
2023-02-14T22:48:46.521Z,64.20
2023-02-14T22:51:24.862Z,65.43
2023-02-14T22:53:54.597Z,63.00
2023-02-14T22:56:25.084Z,62.22
2023-02-14T22:58:56.310Z,59.50
2023-02-14T23:01:23.697Z,68.68
2023-02-14T23:03:53.966Z,60.88
2023-02-14T23:06:20.582Z,63.03
2023-02-14T23:08:47.841Z,62.63
2023-02-14T23:11:17.621Z,65.53
2023-02-14T23:13:44.357Z,57.97
2023-02-14T23:16:10.842Z,62.47
2023-02-14T23:18:37.350Z,58.67
2023-02-14T23:21:03.820Z,61.30
2023-02-14T23:23:31.842Z,57.45
2023-02-14T23:25:59.681Z,58.47
2023-02-14T23:28:26.914Z,65.00
2023-02-14T23:30:53.380Z,58.80
2023-02-14T23:33:20.568Z,57.50
2023-02-14T23:35:47.015Z,53.38
2023-02-14T23:38:13.537Z,59.50
2023-02-14T23:40:39.966Z,61.40
2023-02-14T23:43:06.421Z,56.53
2023-02-14T23:45:32.920Z,54.35
2023-02-14T23:48:04.322Z,54.97
2023-02-14T23:50:31.091Z,61.75
2023-02-14T23:52:58.282Z,58.67
2023-02-14T23:55:24.849Z,62.33
2023-02-14T23:57:51.302Z,57.65
